createdAt,value
2023-01-27T00:00:39.929Z,11.07
2023-01-27T00:03:07.981Z,11.67
2023-01-27T00:05:35.152Z,11.83
2023-01-27T00:08:02.314Z,11.43
2023-01-27T00:10:29.496Z,12.77
2023-01-27T00:13:15.364Z,12.73
2023-01-27T00:15:42.608Z,11.30
2023-01-27T00:18:10.650Z,11.57
2023-01-27T00:20:56.231Z,11.37
2023-01-27T00:23:43.103Z,11.10
2023-01-27T00:26:11.923Z,11.57
2023-01-27T00:28:40.255Z,11.50
2023-01-27T00:31:27.697Z,10.87
2023-01-27T00:33:56.223Z,10.80
2023-01-27T00:36:23.485Z,10.90
2023-01-27T00:38:50.607Z,11.17
2023-01-27T00:41:21.349Z,10.73
2023-01-27T00:43:48.704Z,10.93
2023-01-27T00:46:16.556Z,10.57
2023-01-27T00:48:43.844Z,9.47
2023-01-27T00:51:11.640Z,10.20
2023-01-27T00:53:38.774Z,10.50
2023-01-27T00:56:06.334Z,10.27
2023-01-27T00:58:33.590Z,10.73
2023-01-27T01:01:03.623Z,11.07
2023-01-27T01:03:31.546Z,10.57
2023-01-27T01:06:03.218Z,10.03
2023-01-27T01:08:33.727Z,9.93
2023-01-27T01:11:00.966Z,10.10
2023-01-27T01:13:28.516Z,10.20
2023-01-27T01:15:56.737Z,10.00
2023-01-27T01:18:25.330Z,9.97
2023-01-27T01:20:52.441Z,10.30
2023-01-27T01:23:19.606Z,10.03
2023-01-27T01:25:53.548Z,10.20
2023-01-27T01:28:20.767Z,9.87
2023-01-27T01:30:48.248Z,10.23
2023-01-27T01:33:15.897Z,10.33
2023-01-27T01:35:43.197Z,10.07
2023-01-27T01:38:10.562Z,10.23
2023-01-27T01:40:44.743Z,10.80
2023-01-27T01:43:16.430Z,9.57
2023-01-27T01:45:46.951Z,10.63
2023-01-27T01:48:22.815Z,9.93
2023-01-27T01:50:55.624Z,10.00
2023-01-27T01:53:29.275Z,10.83
2023-01-27T01:55:57.695Z,10.37
2023-01-27T01:58:28.023Z,10.47
2023-01-27T02:00:56.263Z,9.87
2023-01-27T02:03:25.456Z,9.63
2023-01-27T02:05:54.601Z,9.63
2023-01-27T02:08:31.386Z,9.50
2023-01-27T02:10:58.961Z,8.30
2023-01-27T02:13:26.115Z,8.43
2023-01-27T02:15:54.260Z,8.47
2023-01-27T02:18:21.567Z,9.10
2023-01-27T02:20:53.809Z,8.57
2023-01-27T02:23:25.437Z,8.93
2023-01-27T02:26:10.948Z,8.37
2023-01-27T02:28:38.277Z,9.77
2023-01-27T02:31:05.642Z,9.47
2023-01-27T02:33:32.853Z,8.30
2023-01-27T02:36:09.184Z,9.33
2023-01-27T02:38:39.017Z,9.30
2023-01-27T02:41:18.774Z,8.30
2023-01-27T02:43:45.908Z,8.33
2023-01-27T02:46:13.041Z,8.30
2023-01-27T02:48:40.250Z,8.70
2023-01-27T02:51:07.434Z,8.07
2023-01-27T02:53:34.968Z,8.57
2023-01-27T02:56:02.293Z,9.23
2023-01-27T02:58:29.492Z,8.53
2023-01-27T03:00:56.672Z,8.60
2023-01-27T03:03:23.815Z,8.43
2023-01-27T03:05:54.236Z,8.90
2023-01-27T03:08:21.437Z,8.63
2023-01-27T03:10:52.542Z,9.50
2023-01-27T03:13:23.481Z,8.83
2023-01-27T03:16:09.569Z,9.47
2023-01-27T03:18:37.073Z,8.60
2023-01-27T03:21:05.597Z,9.10
2023-01-27T03:23:34.885Z,8.70
2023-01-27T03:26:02.812Z,8.53
2023-01-27T03:28:30.046Z,8.03
2023-01-27T03:31:01.197Z,8.30
2023-01-27T03:33:28.543Z,7.77
2023-01-27T03:36:14.942Z,8.10
2023-01-27T03:39:00.908Z,8.07
2023-01-27T03:41:47.133Z,7.57
2023-01-27T03:44:32.729Z,8.33
2023-01-27T03:46:59.961Z,8.17
2023-01-27T03:49:27.170Z,7.73
2023-01-27T03:51:54.327Z,8.10
2023-01-27T03:54:21.435Z,8.20
2023-01-27T03:56:48.572Z,7.20
2023-01-27T03:59:15.696Z,8.03
2023-01-27T04:01:43.825Z,7.97
2023-01-27T04:04:30.423Z,7.30
2023-01-27T04:07:03.459Z,8.03
2023-01-27T04:09:37.166Z,7.10
2023-01-27T04:12:06.399Z,7.10
2023-01-27T04:14:34.394Z,7.40
2023-01-27T04:17:05.860Z,7.13
2023-01-27T04:19:33.471Z,6.90
2023-01-27T04:22:01.187Z,6.63
2023-01-27T04:24:28.737Z,6.90
2023-01-27T04:26:57.230Z,7.53
2023-01-27T04:29:26.049Z,6.83
2023-01-27T04:31:53.441Z,6.83
2023-01-27T04:34:20.800Z,6.97
2023-01-27T04:36:48.105Z,6.93
2023-01-27T04:39:15.692Z,7.10
2023-01-27T04:41:43.105Z,6.77
2023-01-27T04:44:10.640Z,5.97
2023-01-27T04:46:37.953Z,6.20
2023-01-27T04:49:05.709Z,6.43
2023-01-27T04:51:33.427Z,6.50
2023-01-27T04:54:00.849Z,6.33
2023-01-27T04:56:32.597Z,6.10
2023-01-27T04:59:01.032Z,6.10
2023-01-27T05:01:28.896Z,7.20
2023-01-27T05:03:56.488Z,6.70
2023-01-27T05:06:24.124Z,6.80
2023-01-27T05:08:51.601Z,7.13
2023-01-27T05:11:19.129Z,7.40
2023-01-27T05:13:46.671Z,6.73
2023-01-27T05:16:15.647Z,6.90
2023-01-27T05:18:43.405Z,6.90
2023-01-27T05:21:13.223Z,5.87
2023-01-27T05:23:40.536Z,6.83
2023-01-27T05:26:27.431Z,6.70
2023-01-27T05:28:55.468Z,6.97
2023-01-27T05:31:24.772Z,6.90
2023-01-27T05:33:53.142Z,7.10
2023-01-27T05:36:21.700Z,6.00
2023-01-27T05:38:48.886Z,6.93
2023-01-27T05:41:16.933Z,7.37
2023-01-27T05:43:45.653Z,7.20
2023-01-27T05:46:13.828Z,6.90
2023-01-27T05:48:42.910Z,6.93
2023-01-27T05:51:11.799Z,7.20
2023-01-27T05:53:40.020Z,6.93
2023-01-27T05:56:10.456Z,7.40
2023-01-27T05:58:38.070Z,7.30
2023-01-27T06:01:13.088Z,7.40
2023-01-27T06:03:40.284Z,7.47
2023-01-27T06:06:08.528Z,7.27
2023-01-27T06:08:36.233Z,8.80
2023-01-27T06:11:03.733Z,7.63
2023-01-27T06:13:30.944Z,7.70
2023-01-27T06:15:58.463Z,7.87
2023-01-27T06:18:25.682Z,7.53
2023-01-27T06:20:52.818Z,7.20
2023-01-27T06:23:19.969Z,7.03
2023-01-27T06:25:48.496Z,7.90
2023-01-27T06:28:28.219Z,7.80
2023-01-27T06:30:56.901Z,9.13
2023-01-27T06:33:24.302Z,8.07
2023-01-27T06:35:51.537Z,8.03
2023-01-27T06:38:18.687Z,7.70
2023-01-27T06:40:45.832Z,7.77
2023-01-27T06:43:13.905Z,8.63
2023-01-27T06:45:41.325Z,8.53
2023-01-27T06:48:09.059Z,8.97
2023-01-27T06:50:37.202Z,9.17
2023-01-27T06:53:06.009Z,8.70
2023-01-27T06:55:33.479Z,8.00
2023-01-27T06:58:01.813Z,9.23
2023-01-27T07:00:29.001Z,8.00
2023-01-27T07:02:56.715Z,9.03
2023-01-27T07:05:24.044Z,8.27
2023-01-27T07:07:51.196Z,8.73
2023-01-27T07:10:18.410Z,8.27
2023-01-27T07:12:45.758Z,9.40
2023-01-27T07:15:13.209Z,7.87
2023-01-27T07:17:40.577Z,8.03
2023-01-27T07:20:09.455Z,7.67
2023-01-27T07:22:36.612Z,8.13
2023-01-27T07:25:04.309Z,7.47
2023-01-27T07:27:31.492Z,8.90
2023-01-27T07:29:58.674Z,8.70
2023-01-27T07:32:27.394Z,8.80
2023-01-27T07:34:55.599Z,9.43
2023-01-27T07:37:22.900Z,8.30
2023-01-27T07:39:50.021Z,9.30
2023-01-27T07:42:17.196Z,7.97
2023-01-27T07:44:44.318Z,7.73
2023-01-27T07:47:11.639Z,8.03
2023-01-27T07:49:38.763Z,8.70
2023-01-27T07:52:05.930Z,7.80
2023-01-27T07:54:33.075Z,8.87
2023-01-27T07:57:01.520Z,7.80
2023-01-27T07:59:28.995Z,7.70
2023-01-27T08:01:56.127Z,7.73
2023-01-27T08:04:23.251Z,7.90
2023-01-27T08:06:50.356Z,9.13
2023-01-27T08:09:17.535Z,8.23
2023-01-27T08:11:44.651Z,9.00
2023-01-27T08:14:11.809Z,8.00
2023-01-27T08:16:39.018Z,7.50
2023-01-27T08:19:06.147Z,7.20
2023-01-27T08:21:33.286Z,7.73
2023-01-27T08:24:00.736Z,7.63
2023-01-27T08:26:28.084Z,7.67
2023-01-27T08:28:55.218Z,7.70
2023-01-27T08:31:22.435Z,7.50
2023-01-27T08:33:53.812Z,7.30
2023-01-27T08:36:21.629Z,7.27
2023-01-27T08:38:51.992Z,7.17
2023-01-27T08:41:23.252Z,7.70
2023-01-27T08:43:50.426Z,7.30
2023-01-27T08:46:17.785Z,6.90
2023-01-27T08:48:44.997Z,7.40
2023-01-27T08:51:13.630Z,7.70
2023-01-27T08:53:41.088Z,7.97
2023-01-27T08:56:09.229Z,7.77
2023-01-27T08:58:36.506Z,8.40
2023-01-27T09:01:04.544Z,7.53
2023-01-27T09:03:32.373Z,7.30
2023-01-27T09:05:59.774Z,6.80
2023-01-27T09:08:27.198Z,7.70
2023-01-27T09:10:54.396Z,8.00
2023-01-27T09:13:24.656Z,6.70
2023-01-27T09:15:52.664Z,7.00
2023-01-27T09:18:20.157Z,6.93
2023-01-27T09:20:47.311Z,6.67
2023-01-27T09:23:14.468Z,6.73
2023-01-27T09:25:41.670Z,7.00
2023-01-27T09:28:16.946Z,5.67
2023-01-27T09:30:47.055Z,6.70
2023-01-27T09:33:17.365Z,6.67
2023-01-27T09:35:47.228Z,6.20
2023-01-27T09:38:17.378Z,5.83
2023-01-27T09:40:44.482Z,6.07
2023-01-27T09:43:20.654Z,6.60
2023-01-27T09:45:52.765Z,6.47
2023-01-27T09:48:22.957Z,6.07
2023-01-27T09:50:53.153Z,5.83
2023-01-27T09:53:38.587Z,5.77
2023-01-27T09:56:12.440Z,6.67
2023-01-27T09:58:54.666Z,6.37
2023-01-27T10:01:40.690Z,6.50
2023-01-27T10:04:25.986Z,5.80
2023-01-27T10:06:53.193Z,5.73
2023-01-27T10:09:35.100Z,5.50
2023-01-27T10:12:34.491Z,5.77
2023-01-27T10:15:10.601Z,6.70
2023-01-27T10:17:43.920Z,6.33
2023-01-27T10:20:19.906Z,6.10
2023-01-27T10:22:47.046Z,5.67
2023-01-27T10:25:26.241Z,6.30
2023-01-27T10:27:57.816Z,5.57
2023-01-27T10:30:35.306Z,4.00
2023-01-27T10:33:19.341Z,3.30
2023-01-27T10:35:54.328Z,3.80
2023-01-27T10:38:28.791Z,3.97
2023-01-27T10:41:07.982Z,4.10
2023-01-27T10:43:53.195Z,4.30
2023-01-27T10:46:34.402Z,3.70
2023-01-27T10:49:01.538Z,3.60
2023-01-27T10:51:32.743Z,4.03
2023-01-27T10:54:12.042Z,4.20
2023-01-27T10:56:42.404Z,3.90
2023-01-27T10:59:21.252Z,4.23
2023-01-27T11:01:56.926Z,3.83
2023-01-27T11:04:36.775Z,4.23
2023-01-27T11:07:04.945Z,3.60
2023-01-27T11:09:36.423Z,3.50
2023-01-27T11:12:06.226Z,3.00
2023-01-27T11:14:38.999Z,3.37
2023-01-27T11:17:26.046Z,3.50
2023-01-27T11:19:59.478Z,3.67
2023-01-27T11:22:35.374Z,3.63
2023-01-27T11:25:08.488Z,3.33
2023-01-27T11:27:47.260Z,2.80
2023-01-27T11:30:17.822Z,2.13
2023-01-27T11:32:48.556Z,2.30
2023-01-27T11:35:16.388Z,2.60
2023-01-27T11:37:48.864Z,2.23
2023-01-27T11:40:31.713Z,2.17
2023-01-27T11:42:59.619Z,1.80
2023-01-27T11:45:28.158Z,2.37
2023-01-27T11:47:57.265Z,2.20
2023-01-27T11:50:27.368Z,2.20
2023-01-27T11:53:01.223Z,3.83
2023-01-27T11:55:34.554Z,4.90
2023-01-27T11:58:21.936Z,4.30
2023-01-27T12:00:52.379Z,3.80
2023-01-27T12:03:31.478Z,7.23
2023-01-27T12:06:01.790Z,4.00
2023-01-27T12:08:39.766Z,3.40
2023-01-27T12:11:23.777Z,3.20
2023-01-27T12:13:55.288Z,2.73
2023-01-27T12:16:24.360Z,2.30
2023-01-27T12:19:02.670Z,2.10
2023-01-27T12:21:41.375Z,2.10
2023-01-27T12:24:15.200Z,2.10
2023-01-27T12:26:44.948Z,1.90
2023-01-27T12:29:18.158Z,2.20
2023-01-27T12:31:48.049Z,2.40
2023-01-27T12:34:24.542Z,2.30
2023-01-27T12:36:51.979Z,3.30
2023-01-27T12:39:38.011Z,1.60
2023-01-27T12:42:05.269Z,2.10
2023-01-27T12:44:43.185Z,1.70
2023-01-27T12:47:29.353Z,1.87
2023-01-27T12:50:15.286Z,3.03
2023-01-27T12:52:42.755Z,2.10
2023-01-27T12:55:28.168Z,1.67
2023-01-27T12:57:55.305Z,1.80
2023-01-27T13:00:22.464Z,1.93
2023-01-27T13:02:49.667Z,1.90
2023-01-27T13:05:18.109Z,1.80
2023-01-27T13:07:46.663Z,1.70
2023-01-27T13:10:32.143Z,1.70
2023-01-27T13:13:00.794Z,3.70
2023-01-27T13:15:31.132Z,7.50
2023-01-27T13:18:12.380Z,5.77
2023-01-27T13:20:44.899Z,6.93
2023-01-27T13:23:29.269Z,9.20
2023-01-27T13:26:05.491Z,4.97
2023-01-27T13:28:50.075Z,2.30
2023-01-27T13:31:37.345Z,2.20
2023-01-27T13:34:07.140Z,3.43
2023-01-27T13:36:49.511Z,3.43
2023-01-27T13:39:28.641Z,2.70
2023-01-27T13:41:55.776Z,2.30
2023-01-27T13:44:46.723Z,2.47
2023-01-27T13:47:16.544Z,2.30
2023-01-27T13:49:45.542Z,2.60
2023-01-27T13:52:13.051Z,2.70
2023-01-27T13:54:40.342Z,2.90
2023-01-27T13:57:16.375Z,2.57
2023-01-27T13:59:55.385Z,2.63
2023-01-27T14:02:31.617Z,2.87
2023-01-27T14:05:17.286Z,2.30
2023-01-27T14:07:59.669Z,2.30
2023-01-27T14:10:35.669Z,2.50
2023-01-27T14:13:20.848Z,2.33
2023-01-27T14:15:55.708Z,2.50
2023-01-27T14:18:28.509Z,2.73
2023-01-27T14:21:08.087Z,2.73
2023-01-27T14:23:45.548Z,2.63
2023-01-27T14:26:31.574Z,2.70
2023-01-27T14:29:04.714Z,2.60
2023-01-27T14:31:55.110Z,2.90
2023-01-27T14:34:29.200Z,2.73
2023-01-27T14:36:59.819Z,3.00
2023-01-27T14:39:42.257Z,2.63
2023-01-27T14:42:15.428Z,3.53
2023-01-27T14:45:06.819Z,3.20
2023-01-27T14:47:33.919Z,2.90
2023-01-27T14:50:17.116Z,2.80
2023-01-27T14:52:50.364Z,3.23
2023-01-27T14:55:30.423Z,3.30
2023-01-27T14:58:06.738Z,3.90
2023-01-27T15:00:53.555Z,3.10
2023-01-27T15:03:39.436Z,3.67
2023-01-27T15:06:06.595Z,3.90
2023-01-27T15:08:38.326Z,3.50
2023-01-27T15:11:22.592Z,3.13
2023-01-27T15:14:08.550Z,4.30
2023-01-27T15:16:54.060Z,3.67
2023-01-27T15:19:21.190Z,3.40
2023-01-27T15:21:51.351Z,3.20
2023-01-27T15:24:28.178Z,3.50
2023-01-27T15:26:55.594Z,4.00
2023-01-27T15:29:26.044Z,4.23
2023-01-27T15:32:13.768Z,3.77
2023-01-27T15:34:41.114Z,3.63
2023-01-27T15:37:11.039Z,3.77
2023-01-27T15:40:03.947Z,3.63
2023-01-27T15:42:47.360Z,3.20
2023-01-27T15:45:34.354Z,6.80
2023-01-27T15:48:01.567Z,4.73
2023-01-27T15:50:31.447Z,3.93
2023-01-27T15:53:03.614Z,3.40
2023-01-27T15:55:32.229Z,5.33
2023-01-27T15:58:07.105Z,5.10
2023-01-27T16:00:34.258Z,6.50
2023-01-27T16:03:03.642Z,5.23
2023-01-27T16:05:37.850Z,4.40
2023-01-27T16:08:11.090Z,3.63
2023-01-27T16:10:38.359Z,2.97
2023-01-27T16:13:24.149Z,3.20
2023-01-27T16:16:11.233Z,4.27
2023-01-27T16:18:44.001Z,3.90
2023-01-27T16:21:22.680Z,3.43
2023-01-27T16:23:53.483Z,3.70
2023-01-27T16:26:28.571Z,3.47
2023-01-27T16:29:26.455Z,3.10
2023-01-27T16:31:55.604Z,2.70
2023-01-27T16:34:26.088Z,2.67
2023-01-27T16:37:04.764Z,4.00
2023-01-27T16:39:35.174Z,5.13
2023-01-27T16:42:03.122Z,5.13
2023-01-27T16:44:44.540Z,4.60
2023-01-27T16:47:18.427Z,5.10
2023-01-27T16:49:45.863Z,5.77
2023-01-27T16:52:24.655Z,5.47
2023-01-27T16:54:57.168Z,5.00
2023-01-27T16:57:30.301Z,4.83
2023-01-27T17:00:00.234Z,4.57
2023-01-27T17:02:28.491Z,4.47
2023-01-27T17:04:56.947Z,4.83
2023-01-27T17:07:24.076Z,4.70
2023-01-27T17:09:55.595Z,5.47
2023-01-27T17:12:28.999Z,5.40
2023-01-27T17:14:56.191Z,3.30
2023-01-27T17:17:24.391Z,3.57
2023-01-27T17:19:52.744Z,3.40
2023-01-27T17:22:19.856Z,3.57
2023-01-27T17:24:50.793Z,3.50
2023-01-27T17:27:26.716Z,3.60
2023-01-27T17:30:00.210Z,2.87
2023-01-27T17:32:29.421Z,3.70
2023-01-27T17:34:58.077Z,3.40
2023-01-27T17:37:25.335Z,3.43
2023-01-27T17:39:53.579Z,3.70
2023-01-27T17:42:21.647Z,3.37
2023-01-27T17:44:50.523Z,3.37
2023-01-27T17:47:18.802Z,3.33
2023-01-27T17:49:47.455Z,4.33
2023-01-27T17:52:22.552Z,3.30
2023-01-27T17:54:50.034Z,3.13
2023-01-27T17:57:19.063Z,3.63
2023-01-27T17:59:54.064Z,3.13
2023-01-27T18:02:25.698Z,3.10
2023-01-27T18:04:54.888Z,2.90
2023-01-27T18:07:22.153Z,3.00
2023-01-27T18:09:56.422Z,3.50
2023-01-27T18:12:31.815Z,2.80
2023-01-27T18:14:59.419Z,2.70
2023-01-27T18:17:27.915Z,2.97
2023-01-27T18:19:56.775Z,3.30
2023-01-27T18:22:28.170Z,3.03
2023-01-27T18:25:00.806Z,2.80
2023-01-27T18:27:32.283Z,2.80
2023-01-27T18:30:02.097Z,2.60
2023-01-27T18:32:36.665Z,2.63
2023-01-27T18:35:04.943Z,2.57
2023-01-27T18:37:32.882Z,2.50
2023-01-27T18:43:22.306Z,3.23
2023-01-27T18:45:50.506Z,3.83
2023-01-27T18:48:38.385Z,3.07
2023-01-27T18:51:09.601Z,3.40
2023-01-27T18:53:36.753Z,3.43
2023-01-27T18:56:04.494Z,3.23
2023-01-27T18:58:31.661Z,3.40
2023-01-27T19:00:59.718Z,3.33
2023-01-27T19:03:27.881Z,3.07
2023-01-27T19:05:55.242Z,3.30
2023-01-27T19:08:23.498Z,3.13
2023-01-27T19:10:51.763Z,3.30
2023-01-27T19:13:19.338Z,3.10
2023-01-27T19:15:54.976Z,2.87
2023-01-27T19:18:38.649Z,2.80
2023-01-27T19:21:05.992Z,3.47
2023-01-27T19:23:33.358Z,3.00
2023-01-27T19:26:03.493Z,3.37
2023-01-27T19:28:35.848Z,3.13
2023-01-27T19:31:03.350Z,3.07
2023-01-27T19:33:34.760Z,3.00
2023-01-27T19:36:03.740Z,3.20
2023-01-27T19:38:30.901Z,3.30
2023-01-27T19:40:58.128Z,2.87
2023-01-27T19:43:25.327Z,3.20
2023-01-27T19:45:52.595Z,3.70
2023-01-27T19:48:21.758Z,3.03
2023-01-27T19:50:49.672Z,3.47
2023-01-27T19:53:17.383Z,3.43
2023-01-27T19:55:45.462Z,4.07
2023-01-27T19:58:38.987Z,4.27
2023-01-27T20:01:06.243Z,5.20
2023-01-27T20:03:33.416Z,5.60
2023-01-27T20:06:00.578Z,5.20
2023-01-27T20:08:27.696Z,4.10
2023-01-27T20:10:54.842Z,3.80
2023-01-27T20:13:22.149Z,3.50
2023-01-27T20:15:49.321Z,4.20
2023-01-27T20:18:17.533Z,3.70
2023-01-27T20:20:45.581Z,4.60
2023-01-27T20:23:14.309Z,4.27
2023-01-27T20:25:41.449Z,4.17
2023-01-27T20:28:09.959Z,3.40
2023-01-27T20:30:37.205Z,4.10
2023-01-27T20:33:05.063Z,4.37
2023-01-27T20:35:32.292Z,7.20
2023-01-27T20:37:59.427Z,5.33
2023-01-27T20:40:29.909Z,4.70
2023-01-27T20:42:57.091Z,3.53
2023-01-27T20:45:24.345Z,3.80
2023-01-27T20:47:52.296Z,3.80
2023-01-27T20:50:23.422Z,3.93
2023-01-27T20:52:52.248Z,3.97
2023-01-27T20:55:19.760Z,3.90
2023-01-27T20:57:47.375Z,3.80
2023-01-27T21:00:19.559Z,7.23
2023-01-27T21:02:47.552Z,10.13
2023-01-27T21:05:15.376Z,5.60
2023-01-27T21:07:42.884Z,5.50
2023-01-27T21:10:10.336Z,5.33
2023-01-27T21:12:37.477Z,5.17
2023-01-27T21:15:09.520Z,5.47
2023-01-27T21:17:36.883Z,5.37
2023-01-27T21:20:05.416Z,5.80
2023-01-27T21:22:34.555Z,6.77
2023-01-27T21:25:01.820Z,7.10
2023-01-27T21:27:28.998Z,7.83
2023-01-27T21:29:56.204Z,7.83
2023-01-27T21:32:23.398Z,7.40
2023-01-27T21:34:50.544Z,9.40
2023-01-27T21:37:17.713Z,10.37
2023-01-27T21:39:44.886Z,10.10
2023-01-27T21:42:15.082Z,11.50
2023-01-27T21:45:01.159Z,19.80
2023-01-27T21:47:28.314Z,20.20
2023-01-27T21:50:01.566Z,21.43
2023-01-27T21:52:56.904Z,19.43
2023-01-27T21:55:25.377Z,16.57
2023-01-27T21:57:53.309Z,16.80
2023-01-27T22:00:22.489Z,9.23
2023-01-27T22:02:55.383Z,5.70
2023-01-27T22:05:22.823Z,6.60
2023-01-27T22:07:51.682Z,6.53
2023-01-27T22:10:20.119Z,7.53
2023-01-27T22:12:47.657Z,8.00
2023-01-27T22:15:16.010Z,6.80
2023-01-27T22:17:44.213Z,6.50
2023-01-27T22:20:18.186Z,9.37
2023-01-27T22:22:45.846Z,10.50
2023-01-27T22:25:14.479Z,9.20
2023-01-27T22:27:42.377Z,7.43
2023-01-27T22:30:10.802Z,6.77
2023-01-27T22:32:37.976Z,6.80
2023-01-27T22:35:05.953Z,5.53
2023-01-27T22:37:34.167Z,4.70
2023-01-27T22:40:01.712Z,7.20
2023-01-27T22:42:28.845Z,6.87
2023-01-27T22:44:56.001Z,6.00
2023-01-27T22:47:23.147Z,7.10
2023-01-27T22:49:50.321Z,11.33
2023-01-27T22:52:17.591Z,8.10
2023-01-27T22:54:44.782Z,8.60
2023-01-27T22:57:12.013Z,6.70
2023-01-27T22:59:39.208Z,10.70
2023-01-27T23:02:06.343Z,5.10
2023-01-27T23:04:33.485Z,4.80
2023-01-27T23:07:00.668Z,5.10
2023-01-27T23:09:27.794Z,5.80
2023-01-27T23:11:54.929Z,6.90
2023-01-27T23:14:22.088Z,4.73
2023-01-27T23:16:52.815Z,3.67
2023-01-27T23:19:21.919Z,3.93
2023-01-27T23:21:49.092Z,3.87
2023-01-27T23:24:16.331Z,3.30
2023-01-27T23:26:43.552Z,2.80
2023-01-27T23:29:22.892Z,2.80
2023-01-27T23:31:51.752Z,2.67
2023-01-27T23:34:19.029Z,2.80
2023-01-27T23:36:46.181Z,2.57
2023-01-27T23:39:14.487Z,3.00
2023-01-27T23:41:41.765Z,2.70
2023-01-27T23:44:12.088Z,2.50
2023-01-27T23:46:39.419Z,2.27
2023-01-27T23:49:07.749Z,2.30
2023-01-27T23:51:34.936Z,2.73
2023-01-27T23:54:03.039Z,2.03
2023-01-27T23:56:31.133Z,2.20
2023-01-27T23:58:58.261Z,2.33
